首页
METAR-TAF:

METAR-TAF

机场 :

漢弗萊營

平澤, 大韩民国

纬度: 36-56N, 经度: 127-00E, 海拔: 16米

当前天气观测

该预报发布于27分钟前的10:55 UTC
风速5节,风向西
温度 20°C
湿度 94%
气压 1001 hPa
能見度: 6.4公里
阴天层高于700英尺
小毛毛雨

METAR: RKSG 261055Z 28005KT 4SM -DZ OVC007 20/19 A2957 RMK AO2A DZE0957RAB0957E12DZB12E25DZB52 SLP016 P0001 T02030191 $

时间: 20:22 (11:22 UTC)

预报

该预报发布于5小时和17分钟前的06:05 UTC
预报有效从26日的 06点(UTC)到 27日的 09点(UTC)
风速10节,风向南转西南,有时为15节阵风
能見度: 4800
阴天层高于2500英尺
短暂存在
从 26日的 06点(UTC)到 26日的 09点(UTC)
能見度: 1600
多云层高于700英尺
附近有雷暴, 大雨
成为
从 26日的 08点(UTC)到 26日的 09点(UTC)
风速9节,风向南转西南
能見度: 6000
阴天层高于1500英尺
小阵雨
成为
从 26日的 16点(UTC)到 26日的 17点(UTC)
风速9节,风向西
能見度: 4800
阴天层高于2000英尺
轻雾
成为
从 26日的 20点(UTC)到 26日的 21点(UTC)
风速6节,风向西
能見度: 9000
散云层高于700英尺
轻雾
成为
从 26日的 23点(UTC)到 26日的 24点(UTC)
风速15节,风向西转西北,有时为20节阵风
能见度10公里或以上
散云层高于2900英尺

TAF: RKSG 260605Z 2606/2709 20010G15KT 4800 RA OVC025 510013 QNH2973INS TEMPO 2606/2609 1600 VCTS +RA BKN007 BECMG 2608/2609 21009KT 6000 -SHRA OVC015 510203 QNH2959INS BECMG 2616/2617 28009KT 4800 BR OVC020 QNH2959INS BECMG 2620/2621 28006KT 9000 BR SCT007 510052 QNH2960INS BECMG 2623/2624 30015G20KT 9999 NSW SCT029 520052 QNH2963INS TX20/2610Z TN14/2621Z

超过4000个机场的气象观测和天气预报(METAR&TAF报告)。

可查询的气象台以黄色和红色小点在地图上表示。

将鼠标移到小点上方,可查看气象台名称。

然后点击查看天气观测和预报。

如需切换地图:点击带黑十字的绿色按钮放大地图;点击带横线的绿色按钮缩小地图;或者点击绿色箭头查看邻近地区的地图。


METAR-TAF: